sensor_id;sensor_type;location;lat;lon;timestamp;P1;durP1;ratioP1;P2;durP2;ratioP2
25922;SDS011;13725;51.170;4.442;2022-09-09T00:01:43;8.88;;;4.43;;
25922;SDS011;13725;51.170;4.442;2022-09-09T00:04:21;10.30;;;4.38;;
25922;SDS011;13725;51.170;4.442;2022-09-09T00:06:59;9.77;;;4.75;;
25922;SDS011;13725;51.170;4.442;2022-09-09T00:09:35;7.55;;;4.00;;
25922;SDS011;13725;51.170;4.442;2022-09-09T00:12:17;8.48;;;4.30;;
25922;SDS011;13725;51.170;4.442;2022-09-09T00:14:58;13.73;;;4.18;;
25922;SDS011;13725;51.170;4.442;2022-09-09T00:17:42;8.60;;;3.97;;
25922;SDS011;13725;51.170;4.442;2022-09-09T00:22:50;10.82;;;3.92;;
25922;SDS011;13725;51.170;4.442;2022-09-09T00:25:42;9.20;;;3.80;;
25922;SDS011;13725;51.170;4.442;2022-09-09T00:28:16;9.48;;;3.60;;
25922;SDS011;13725;51.170;4.442;2022-09-09T00:30:46;10.13;;;3.55;;
25922;SDS011;13725;51.170;4.442;2022-09-09T00:33:13;11.70;;;3.50;;
25922;SDS011;13725;51.170;4.442;2022-09-09T00:35:54;7.95;;;3.35;;
25922;SDS011;13725;51.170;4.442;2022-09-09T00:38:31;10.98;;;3.20;;
25922;SDS011;13725;51.170;4.442;2022-09-09T00:47:09;9.88;;;3.65;;
25922;SDS011;13725;51.170;4.442;2022-09-09T00:57:26;6.93;;;3.60;;
25922;SDS011;13725;51.170;4.442;2022-09-09T01:00:16;7.93;;;3.53;;
25922;SDS011;13725;51.170;4.442;2022-09-09T01:02:58;9.25;;;3.13;;
25922;SDS011;13725;51.170;4.442;2022-09-09T01:05:40;7.90;;;3.75;;
25922;SDS011;13725;51.170;4.442;2022-09-09T01:08:36;9.82;;;3.28;;
25922;SDS011;13725;51.170;4.442;2022-09-09T01:14:03;7.72;;;3.33;;
25922;SDS011;13725;51.170;4.442;2022-09-09T01:16:39;11.60;;;3.80;;
25922;SDS011;13725;51.170;4.442;2022-09-09T01:19:07;10.13;;;3.45;;
25922;SDS011;13725;51.170;4.442;2022-09-09T01:21:52;8.93;;;3.50;;
25922;SDS011;13725;51.170;4.442;2022-09-09T01:24:36;10.77;;;3.30;;
25922;SDS011;13725;51.170;4.442;2022-09-09T01:27:22;9.80;;;3.97;;
25922;SDS011;13725;51.170;4.442;2022-09-09T01:29:50;9.98;;;3.60;;
25922;SDS011;13725;51.170;4.442;2022-09-09T01:35:05;10.13;;;3.88;;
25922;SDS011;13725;51.170;4.442;2022-09-09T01:37:52;9.68;;;4.22;;
25922;SDS011;13725;51.170;4.442;2022-09-09T01:40:18;13.93;;;3.38;;
25922;SDS011;13725;51.170;4.442;2022-09-09T01:42:46;7.18;;;3.30;;
25922;SDS011;13725;51.170;4.442;2022-09-09T01:45:12;12.50;;;3.47;;
25922;SDS011;13725;51.170;4.442;2022-09-09T01:47:38;7.93;;;3.13;;
25922;SDS011;13725;51.170;4.442;2022-09-09T01:50:13;8.10;;;3.22;;
25922;SDS011;13725;51.170;4.442;2022-09-09T01:52:42;9.50;;;3.30;;
25922;SDS011;13725;51.170;4.442;2022-09-09T01:55:11;11.05;;;3.92;;
25922;SDS011;13725;51.170;4.442;2022-09-09T02:00:11;8.13;;;3.05;;
25922;SDS011;13725;51.170;4.442;2022-09-09T02:11:20;6.13;;;2.80;;
25922;SDS011;13725;51.170;4.442;2022-09-09T02:13:54;9.70;;;3.28;;
25922;SDS011;13725;51.170;4.442;2022-09-09T02:19:06;10.07;;;2.78;;
25922;SDS011;13725;51.170;4.442;2022-09-09T02:21:52;10.00;;;2.85;;
25922;SDS011;13725;51.170;4.442;2022-09-09T02:24:21;11.65;;;2.72;;
25922;SDS011;13725;51.170;4.442;2022-09-09T02:26:58;7.38;;;2.50;;
25922;SDS011;13725;51.170;4.442;2022-09-09T02:29:31;10.32;;;2.80;;
25922;SDS011;13725;51.170;4.442;2022-09-09T02:32:02;6.70;;;3.15;;
25922;SDS011;13725;51.170;4.442;2022-09-09T02:34:35;7.57;;;2.90;;
25922;SDS011;13725;51.170;4.442;2022-09-09T02:37:06;8.82;;;3.25;;
25922;SDS011;13725;51.170;4.442;2022-09-09T02:39:35;9.18;;;3.38;;
25922;SDS011;13725;51.170;4.442;2022-09-09T02:42:03;8.38;;;3.08;;
25922;SDS011;13725;51.170;4.442;2022-09-09T02:44:31;11.13;;;3.40;;
25922;SDS011;13725;51.170;4.442;2022-09-09T02:47:07;10.05;;;4.45;;
25922;SDS011;13725;51.170;4.442;2022-09-09T02:52:49;13.45;;;3.90;;
25922;SDS011;13725;51.170;4.442;2022-09-09T02:58:06;8.65;;;3.58;;
25922;SDS011;13725;51.170;4.442;2022-09-09T03:00:36;9.38;;;3.15;;
25922;SDS011;13725;51.170;4.442;2022-09-09T03:03:04;14.57;;;3.13;;
25922;SDS011;13725;51.170;4.442;2022-09-09T03:05:33;7.35;;;3.10;;
25922;SDS011;13725;51.170;4.442;2022-09-09T03:07:59;10.02;;;3.17;;
25922;SDS011;13725;51.170;4.442;2022-09-09T03:10:26;5.85;;;2.92;;
25922;SDS011;13725;51.170;4.442;2022-09-09T03:12:51;13.18;;;3.03;;
25922;SDS011;13725;51.170;4.442;2022-09-09T03:15:18;17.25;;;3.00;;
25922;SDS011;13725;51.170;4.442;2022-09-09T03:17:44;14.73;;;4.18;;
25922;SDS011;13725;51.170;4.442;2022-09-09T03:20:11;17.30;;;3.13;;
25922;SDS011;13725;51.170;4.442;2022-09-09T03:22:37;8.93;;;3.35;;
25922;SDS011;13725;51.170;4.442;2022-09-09T03:25:03;13.30;;;2.75;;
25922;SDS011;13725;51.170;4.442;2022-09-09T03:27:29;11.90;;;2.92;;
25922;SDS011;13725;51.170;4.442;2022-09-09T03:29:56;17.67;;;4.35;;
25922;SDS011;13725;51.170;4.442;2022-09-09T03:32:24;10.57;;;2.83;;
25922;SDS011;13725;51.170;4.442;2022-09-09T03:34:52;13.98;;;3.17;;
25922;SDS011;13725;51.170;4.442;2022-09-09T03:37:19;11.63;;;3.25;;
25922;SDS011;13725;51.170;4.442;2022-09-09T03:39:45;14.45;;;3.13;;
25922;SDS011;13725;51.170;4.442;2022-09-09T03:42:12;10.82;;;3.15;;
25922;SDS011;13725;51.170;4.442;2022-09-09T03:44:50;12.70;;;3.63;;
25922;SDS011;13725;51.170;4.442;2022-09-09T03:47:20;10.30;;;3.03;;
25922;SDS011;13725;51.170;4.442;2022-09-09T03:49:49;18.13;;;3.40;;
25922;SDS011;13725;51.170;4.442;2022-09-09T03:52:15;13.45;;;3.40;;
25922;SDS011;13725;51.170;4.442;2022-09-09T03:54:42;18.98;;;4.50;;
25922;SDS011;13725;51.170;4.442;2022-09-09T03:57:09;11.55;;;3.25;;
25922;SDS011;13725;51.170;4.442;2022-09-09T03:59:36;23.08;;;3.45;;
25922;SDS011;13725;51.170;4.442;2022-09-09T04:02:03;14.73;;;3.47;;
25922;SDS011;13725;51.170;4.442;2022-09-09T04:04:29;14.38;;;3.10;;
25922;SDS011;13725;51.170;4.442;2022-09-09T04:06:55;12.52;;;3.65;;
25922;SDS011;13725;51.170;4.442;2022-09-09T04:09:22;14.77;;;3.25;;
25922;SDS011;13725;51.170;4.442;2022-09-09T04:11:49;21.48;;;3.35;;
25922;SDS011;13725;51.170;4.442;2022-09-09T04:14:15;14.52;;;3.00;;
25922;SDS011;13725;51.170;4.442;2022-09-09T04:16:41;19.58;;;3.90;;
25922;SDS011;13725;51.170;4.442;2022-09-09T04:19:10;12.05;;;3.55;;
25922;SDS011;13725;51.170;4.442;2022-09-09T04:21:42;16.73;;;2.93;;
25922;SDS011;13725;51.170;4.442;2022-09-09T04:24:08;18.55;;;3.88;;
25922;SDS011;13725;51.170;4.442;2022-09-09T04:26:34;13.10;;;3.20;;
25922;SDS011;13725;51.170;4.442;2022-09-09T04:29:02;16.05;;;3.80;;
25922;SDS011;13725;51.170;4.442;2022-09-09T04:31:28;10.98;;;3.03;;
25922;SDS011;13725;51.170;4.442;2022-09-09T04:33:55;16.90;;;3.80;;
25922;SDS011;13725;51.170;4.442;2022-09-09T04:36:21;17.33;;;3.65;;
25922;SDS011;13725;51.170;4.442;2022-09-09T04:38:50;19.67;;;3.33;;
25922;SDS011;13725;51.170;4.442;2022-09-09T04:41:17;14.32;;;3.33;;
25922;SDS011;13725;51.170;4.442;2022-09-09T04:43:45;13.27;;;3.10;;
25922;SDS011;13725;51.170;4.442;2022-09-09T04:46:13;13.50;;;3.60;;
25922;SDS011;13725;51.170;4.442;2022-09-09T04:48:41;15.25;;;3.03;;
25922;SDS011;13725;51.170;4.442;2022-09-09T04:51:09;13.27;;;3.05;;
25922;SDS011;13725;51.170;4.442;2022-09-09T04:53:38;10.40;;;2.70;;
25922;SDS011;13725;51.170;4.442;2022-09-09T04:56:12;18.00;;;3.25;;
25922;SDS011;13725;51.170;4.442;2022-09-09T04:58:47;13.23;;;3.88;;
25922;SDS011;13725;51.170;4.442;2022-09-09T05:01:20;18.50;;;3.35;;
25922;SDS011;13725;51.170;4.442;2022-09-09T05:03:48;20.55;;;4.53;;
25922;SDS011;13725;51.170;4.442;2022-09-09T05:06:19;11.30;;;3.20;;
25922;SDS011;13725;51.170;4.442;2022-09-09T05:08:48;14.65;;;3.30;;
25922;SDS011;13725;51.170;4.442;2022-09-09T05:13:49;21.80;;;4.15;;
25922;SDS011;13725;51.170;4.442;2022-09-09T05:16:16;14.27;;;3.88;;
25922;SDS011;13725;51.170;4.442;2022-09-09T05:18:43;14.75;;;3.05;;
25922;SDS011;13725;51.170;4.442;2022-09-09T05:21:11;14.80;;;4.35;;
25922;SDS011;13725;51.170;4.442;2022-09-09T05:23:38;15.00;;;3.03;;
25922;SDS011;13725;51.170;4.442;2022-09-09T05:26:05;15.45;;;3.65;;
25922;SDS011;13725;51.170;4.442;2022-09-09T05:28:35;15.88;;;3.33;;
25922;SDS011;13725;51.170;4.442;2022-09-09T05:31:05;14.57;;;3.50;;
25922;SDS011;13725;51.170;4.442;2022-09-09T05:33:38;20.63;;;3.90;;
25922;SDS011;13725;51.170;4.442;2022-09-09T05:36:07;14.23;;;3.83;;
25922;SDS011;13725;51.170;4.442;2022-09-09T05:38:36;14.70;;;4.07;;
25922;SDS011;13725;51.170;4.442;2022-09-09T05:41:03;11.00;;;4.00;;
25922;SDS011;13725;51.170;4.442;2022-09-09T05:43:29;18.17;;;3.45;;
25922;SDS011;13725;51.170;4.442;2022-09-09T05:48:32;18.00;;;3.80;;
25922;SDS011;13725;51.170;4.442;2022-09-09T05:51:02;12.35;;;2.90;;
25922;SDS011;13725;51.170;4.442;2022-09-09T05:53:30;15.45;;;3.55;;
25922;SDS011;13725;51.170;4.442;2022-09-09T05:56:06;17.58;;;4.80;;
25922;SDS011;13725;51.170;4.442;2022-09-09T05:58:37;16.42;;;3.65;;
25922;SDS011;13725;51.170;4.442;2022-09-09T06:01:09;24.33;;;3.45;;
25922;SDS011;13725;51.170;4.442;2022-09-09T06:03:38;14.45;;;3.10;;
25922;SDS011;13725;51.170;4.442;2022-09-09T06:06:06;8.98;;;3.20;;
25922;SDS011;13725;51.170;4.442;2022-09-09T06:08:34;22.95;;;3.78;;
25922;SDS011;13725;51.170;4.442;2022-09-09T06:11:05;18.80;;;3.25;;
25922;SDS011;13725;51.170;4.442;2022-09-09T06:13:31;12.05;;;3.22;;
25922;SDS011;13725;51.170;4.442;2022-09-09T06:15:57;14.98;;;3.22;;
25922;SDS011;13725;51.170;4.442;2022-09-09T06:18:25;16.73;;;3.55;;
25922;SDS011;13725;51.170;4.442;2022-09-09T06:21:02;12.18;;;3.28;;
25922;SDS011;13725;51.170;4.442;2022-09-09T06:23:30;13.68;;;3.28;;
25922;SDS011;13725;51.170;4.442;2022-09-09T06:28:34;16.55;;;3.38;;
25922;SDS011;13725;51.170;4.442;2022-09-09T06:31:04;15.80;;;2.53;;
25922;SDS011;13725;51.170;4.442;2022-09-09T06:33:33;16.23;;;2.95;;
25922;SDS011;13725;51.170;4.442;2022-09-09T06:36:01;8.98;;;2.45;;
25922;SDS011;13725;51.170;4.442;2022-09-09T06:38:29;10.30;;;3.67;;
25922;SDS011;13725;51.170;4.442;2022-09-09T06:40:56;11.68;;;2.70;;
25922;SDS011;13725;51.170;4.442;2022-09-09T06:43:24;15.55;;;2.25;;
25922;SDS011;13725;51.170;4.442;2022-09-09T06:45:54;12.68;;;2.95;;
25922;SDS011;13725;51.170;4.442;2022-09-09T06:48:21;10.70;;;2.25;;
25922;SDS011;13725;51.170;4.442;2022-09-09T06:50:47;10.73;;;2.38;;
25922;SDS011;13725;51.170;4.442;2022-09-09T06:53:18;10.65;;;2.53;;
25922;SDS011;13725;51.170;4.442;2022-09-09T06:55:45;15.48;;;3.80;;
25922;SDS011;13725;51.170;4.442;2022-09-09T06:58:12;9.63;;;2.20;;
25922;SDS011;13725;51.170;4.442;2022-09-09T07:00:38;11.40;;;2.25;;
25922;SDS011;13725;51.170;4.442;2022-09-09T07:03:04;14.63;;;2.65;;
25922;SDS011;13725;51.170;4.442;2022-09-09T07:05:31;12.43;;;2.30;;
25922;SDS011;13725;51.170;4.442;2022-09-09T07:07:57;7.57;;;2.30;;
25922;SDS011;13725;51.170;4.442;2022-09-09T07:10:24;10.32;;;2.40;;
25922;SDS011;13725;51.170;4.442;2022-09-09T07:12:51;15.77;;;2.65;;
25922;SDS011;13725;51.170;4.442;2022-09-09T07:15:18;10.55;;;2.05;;
25922;SDS011;13725;51.170;4.442;2022-09-09T07:17:44;12.90;;;3.90;;
25922;SDS011;13725;51.170;4.442;2022-09-09T07:20:10;16.30;;;2.97;;
25922;SDS011;13725;51.170;4.442;2022-09-09T07:22:37;11.70;;;2.35;;
25922;SDS011;13725;51.170;4.442;2022-09-09T07:25:04;15.65;;;3.15;;
25922;SDS011;13725;51.170;4.442;2022-09-09T07:27:32;8.65;;;2.30;;
25922;SDS011;13725;51.170;4.442;2022-09-09T07:29:57;15.05;;;2.47;;
25922;SDS011;13725;51.170;4.442;2022-09-09T07:32:23;12.18;;;2.50;;
25922;SDS011;13725;51.170;4.442;2022-09-09T07:34:51;9.55;;;2.13;;
25922;SDS011;13725;51.170;4.442;2022-09-09T07:37:17;7.50;;;2.53;;
25922;SDS011;13725;51.170;4.442;2022-09-09T07:39:44;12.80;;;2.70;;
25922;SDS011;13725;51.170;4.442;2022-09-09T07:42:09;11.30;;;2.58;;
25922;SDS011;13725;51.170;4.442;2022-09-09T07:44:37;18.45;;;2.92;;
25922;SDS011;13725;51.170;4.442;2022-09-09T07:47:10;15.15;;;2.35;;
25922;SDS011;13725;51.170;4.442;2022-09-09T07:49:40;9.85;;;2.42;;
25922;SDS011;13725;51.170;4.442;2022-09-09T07:52:07;7.30;;;1.90;;
25922;SDS011;13725;51.170;4.442;2022-09-09T07:54:34;13.90;;;2.15;;
25922;SDS011;13725;51.170;4.442;2022-09-09T07:57:03;12.63;;;2.13;;
25922;SDS011;13725;51.170;4.442;2022-09-09T07:59:31;8.88;;;2.20;;
25922;SDS011;13725;51.170;4.442;2022-09-09T08:01:57;13.68;;;2.35;;
25922;SDS011;13725;51.170;4.442;2022-09-09T08:04:27;9.75;;;2.78;;
25922;SDS011;13725;51.170;4.442;2022-09-09T08:06:55;9.25;;;2.50;;
25922;SDS011;13725;51.170;4.442;2022-09-09T08:09:24;10.52;;;2.45;;
25922;SDS011;13725;51.170;4.442;2022-09-09T08:11:53;8.10;;;1.95;;
25922;SDS011;13725;51.170;4.442;2022-09-09T08:14:19;8.73;;;2.40;;
25922;SDS011;13725;51.170;4.442;2022-09-09T08:16:46;13.38;;;2.60;;
25922;SDS011;13725;51.170;4.442;2022-09-09T08:19:17;7.03;;;1.90;;
25922;SDS011;13725;51.170;4.442;2022-09-09T08:21:44;9.73;;;2.13;;
25922;SDS011;13725;51.170;4.442;2022-09-09T08:24:11;5.38;;;1.92;;
25922;SDS011;13725;51.170;4.442;2022-09-09T08:26:41;8.10;;;2.70;;
25922;SDS011;13725;51.170;4.442;2022-09-09T08:29:10;8.15;;;2.33;;
25922;SDS011;13725;51.170;4.442;2022-09-09T08:34:16;11.55;;;2.10;;
25922;SDS011;13725;51.170;4.442;2022-09-09T08:36:47;11.18;;;1.73;;
25922;SDS011;13725;51.170;4.442;2022-09-09T08:39:15;8.02;;;1.88;;
25922;SDS011;13725;51.170;4.442;2022-09-09T08:58:12;9.70;;;2.05;;
25922;SDS011;13725;51.170;4.442;2022-09-09T09:03:43;7.07;;;1.95;;
25922;SDS011;13725;51.170;4.442;2022-09-09T09:11:34;7.93;;;1.95;;
25922;SDS011;13725;51.170;4.442;2022-09-09T09:14:19;8.95;;;2.13;;
25922;SDS011;13725;51.170;4.442;2022-09-09T09:16:53;10.45;;;3.13;;
25922;SDS011;13725;51.170;4.442;2022-09-09T09:19:22;11.95;;;2.65;;
25922;SDS011;13725;51.170;4.442;2022-09-09T09:21:59;11.77;;;2.30;;
25922;SDS011;13725;51.170;4.442;2022-09-09T09:24:45;12.05;;;3.47;;
25922;SDS011;13725;51.170;4.442;2022-09-09T09:27:33;12.43;;;3.55;;
25922;SDS011;13725;51.170;4.442;2022-09-09T09:30:15;11.02;;;2.53;;
25922;SDS011;13725;51.170;4.442;2022-09-09T09:32:51;6.43;;;2.10;;
25922;SDS011;13725;51.170;4.442;2022-09-09T09:35:26;9.95;;;2.17;;
25922;SDS011;13725;51.170;4.442;2022-09-09T09:37:52;10.13;;;3.65;;
25922;SDS011;13725;51.170;4.442;2022-09-09T09:40:18;5.80;;;2.20;;
25922;SDS011;13725;51.170;4.442;2022-09-09T09:42:54;9.23;;;2.80;;
25922;SDS011;13725;51.170;4.442;2022-09-09T09:48:02;9.90;;;2.45;;
25922;SDS011;13725;51.170;4.442;2022-09-09T09:50:33;10.70;;;2.92;;
25922;SDS011;13725;51.170;4.442;2022-09-09T09:53:01;10.15;;;2.42;;
25922;SDS011;13725;51.170;4.442;2022-09-09T09:55:33;7.22;;;2.25;;
25922;SDS011;13725;51.170;4.442;2022-09-09T09:58:04;10.85;;;2.70;;
25922;SDS011;13725;51.170;4.442;2022-09-09T10:00:32;9.93;;;3.10;;
25922;SDS011;13725;51.170;4.442;2022-09-09T10:03:28;12.20;;;2.53;;
25922;SDS011;13725;51.170;4.442;2022-09-09T10:05:57;7.82;;;2.47;;
25922;SDS011;13725;51.170;4.442;2022-09-09T10:08:24;7.35;;;2.42;;
25922;SDS011;13725;51.170;4.442;2022-09-09T10:10:59;6.18;;;2.10;;
25922;SDS011;13725;51.170;4.442;2022-09-09T10:16:25;13.65;;;2.83;;
25922;SDS011;13725;51.170;4.442;2022-09-09T10:19:01;9.00;;;2.13;;
25922;SDS011;13725;51.170;4.442;2022-09-09T10:24:36;8.25;;;2.42;;
25922;SDS011;13725;51.170;4.442;2022-09-09T10:30:03;9.70;;;1.97;;
25922;SDS011;13725;51.170;4.442;2022-09-09T10:38:10;11.32;;;3.47;;
25922;SDS011;13725;51.170;4.442;2022-09-09T11:00:47;3.85;;;1.30;;
25922;SDS011;13725;51.170;4.442;2022-09-09T11:03:09;5.85;;;1.50;;
25922;SDS011;13725;51.170;4.442;2022-09-09T11:05:46;8.68;;;1.45;;
25922;SDS011;13725;51.170;4.442;2022-09-09T11:08:23;5.70;;;1.42;;
25922;SDS011;13725;51.170;4.442;2022-09-09T11:13:38;6.45;;;1.33;;
25922;SDS011;13725;51.170;4.442;2022-09-09T11:19:03;5.78;;;1.13;;
25922;SDS011;13725;51.170;4.442;2022-09-09T11:21:37;4.32;;;1.50;;
25922;SDS011;13725;51.170;4.442;2022-09-09T11:24:16;4.00;;;1.15;;
25922;SDS011;13725;51.170;4.442;2022-09-09T11:26:49;7.35;;;1.10;;
25922;SDS011;13725;51.170;4.442;2022-09-09T11:32:25;8.27;;;1.15;;
25922;SDS011;13725;51.170;4.442;2022-09-09T11:40:33;7.70;;;1.35;;
25922;SDS011;13725;51.170;4.442;2022-09-09T11:43:08;3.33;;;1.30;;
25922;SDS011;13725;51.170;4.442;2022-09-09T11:45:38;5.70;;;1.58;;
25922;SDS011;13725;51.170;4.442;2022-09-09T11:48:21;3.50;;;1.25;;
25922;SDS011;13725;51.170;4.442;2022-09-09T11:50:57;7.82;;;1.10;;
25922;SDS011;13725;51.170;4.442;2022-09-09T11:53:25;3.75;;;1.25;;
25922;SDS011;13725;51.170;4.442;2022-09-09T11:56:02;6.07;;;1.85;;
25922;SDS011;13725;51.170;4.442;2022-09-09T11:58:33;5.30;;;2.13;;
25922;SDS011;13725;51.170;4.442;2022-09-09T12:01:14;5.50;;;1.02;;
25922;SDS011;13725;51.170;4.442;2022-09-09T12:03:51;2.63;;;0.77;;
25922;SDS011;13725;51.170;4.442;2022-09-09T12:06:33;4.28;;;0.77;;
25922;SDS011;13725;51.170;4.442;2022-09-09T12:09:16;3.15;;;0.80;;
25922;SDS011;13725;51.170;4.442;2022-09-09T12:11:49;4.13;;;1.10;;
25922;SDS011;13725;51.170;4.442;2022-09-09T12:14:22;5.38;;;1.00;;
25922;SDS011;13725;51.170;4.442;2022-09-09T12:17:25;3.85;;;0.73;;
25922;SDS011;13725;51.170;4.442;2022-09-09T12:20:00;2.83;;;0.73;;
25922;SDS011;13725;51.170;4.442;2022-09-09T12:22:39;2.63;;;0.77;;
25922;SDS011;13725;51.170;4.442;2022-09-09T12:30:46;3.17;;;0.90;;
25922;SDS011;13725;51.170;4.442;2022-09-09T12:33:21;2.75;;;0.90;;
25922;SDS011;13725;51.170;4.442;2022-09-09T12:35:51;1.25;;;0.55;;
25922;SDS011;13725;51.170;4.442;2022-09-09T12:38:29;5.38;;;1.00;;
25922;SDS011;13725;51.170;4.442;2022-09-09T12:40:59;7.25;;;1.17;;
25922;SDS011;13725;51.170;4.442;2022-09-09T12:43:26;5.05;;;0.82;;
25922;SDS011;13725;51.170;4.442;2022-09-09T12:46:08;2.65;;;1.10;;
25922;SDS011;13725;51.170;4.442;2022-09-09T12:48:41;3.63;;;0.82;;
25922;SDS011;13725;51.170;4.442;2022-09-09T12:51:17;5.30;;;1.00;;
25922;SDS011;13725;51.170;4.442;2022-09-09T12:53:50;3.45;;;1.20;;
25922;SDS011;13725;51.170;4.442;2022-09-09T12:56:24;4.72;;;0.95;;
25922;SDS011;13725;51.170;4.442;2022-09-09T12:58:52;2.65;;;0.88;;
25922;SDS011;13725;51.170;4.442;2022-09-09T13:01:24;4.50;;;0.90;;
25922;SDS011;13725;51.170;4.442;2022-09-09T13:03:52;3.67;;;0.93;;
25922;SDS011;13725;51.170;4.442;2022-09-09T13:06:19;4.35;;;0.70;;
25922;SDS011;13725;51.170;4.442;2022-09-09T13:08:48;7.65;;;1.10;;
25922;SDS011;13725;51.170;4.442;2022-09-09T13:11:20;2.60;;;1.00;;
25922;SDS011;13725;51.170;4.442;2022-09-09T13:13:50;3.30;;;0.80;;
25922;SDS011;13725;51.170;4.442;2022-09-09T13:16:28;4.70;;;0.93;;
25922;SDS011;13725;51.170;4.442;2022-09-09T13:19:00;3.70;;;0.80;;
25922;SDS011;13725;51.170;4.442;2022-09-09T13:21:46;3.20;;;0.80;;
25922;SDS011;13725;51.170;4.442;2022-09-09T13:24:30;4.05;;;1.10;;
25922;SDS011;13725;51.170;4.442;2022-09-09T13:26:58;1.52;;;0.73;;
25922;SDS011;13725;51.170;4.442;2022-09-09T13:29:27;5.22;;;1.00;;
25922;SDS011;13725;51.170;4.442;2022-09-09T13:31:53;2.83;;;0.60;;
25922;SDS011;13725;51.170;4.442;2022-09-09T13:34:34;1.65;;;0.60;;
25922;SDS011;13725;51.170;4.442;2022-09-09T13:37:02;3.45;;;1.10;;
25922;SDS011;13725;51.170;4.442;2022-09-09T13:39:31;2.92;;;0.80;;
25922;SDS011;13725;51.170;4.442;2022-09-09T13:42:02;2.45;;;0.80;;
25922;SDS011;13725;51.170;4.442;2022-09-09T13:44:30;2.78;;;0.70;;
25922;SDS011;13725;51.170;4.442;2022-09-09T13:47:17;2.90;;;0.80;;
25922;SDS011;13725;51.170;4.442;2022-09-09T13:49:44;4.28;;;1.20;;
25922;SDS011;13725;51.170;4.442;2022-09-09T13:52:12;4.97;;;0.90;;
25922;SDS011;13725;51.170;4.442;2022-09-09T13:54:39;2.08;;;0.57;;
25922;SDS011;13725;51.170;4.442;2022-09-09T13:57:13;2.72;;;0.70;;
25922;SDS011;13725;51.170;4.442;2022-09-09T13:59:50;2.17;;;1.00;;
25922;SDS011;13725;51.170;4.442;2022-09-09T14:02:20;3.13;;;0.90;;
25922;SDS011;13725;51.170;4.442;2022-09-09T14:04:48;3.63;;;0.85;;
25922;SDS011;13725;51.170;4.442;2022-09-09T14:07:16;3.83;;;0.65;;
25922;SDS011;13725;51.170;4.442;2022-09-09T14:09:43;4.55;;;1.10;;
25922;SDS011;13725;51.170;4.442;2022-09-09T14:12:13;1.60;;;0.70;;
25922;SDS011;13725;51.170;4.442;2022-09-09T14:14:40;5.25;;;1.05;;
25922;SDS011;13725;51.170;4.442;2022-09-09T14:17:07;4.60;;;1.10;;
25922;SDS011;13725;51.170;4.442;2022-09-09T14:19:33;5.18;;;1.13;;
25922;SDS011;13725;51.170;4.442;2022-09-09T14:22:03;4.32;;;1.48;;
25922;SDS011;13725;51.170;4.442;2022-09-09T14:24:29;6.00;;;1.38;;
25922;SDS011;13725;51.170;4.442;2022-09-09T14:26:54;5.88;;;1.30;;
25922;SDS011;13725;51.170;4.442;2022-09-09T14:29:21;3.50;;;0.98;;
25922;SDS011;13725;51.170;4.442;2022-09-09T14:31:47;3.83;;;1.05;;
25922;SDS011;13725;51.170;4.442;2022-09-09T14:34:12;3.80;;;0.77;;
25922;SDS011;13725;51.170;4.442;2022-09-09T14:36:39;4.93;;;1.40;;
25922;SDS011;13725;51.170;4.442;2022-09-09T14:39:06;3.85;;;0.80;;
25922;SDS011;13725;51.170;4.442;2022-09-09T14:41:32;4.75;;;0.90;;
25922;SDS011;13725;51.170;4.442;2022-09-09T14:43:58;1.77;;;0.80;;
25922;SDS011;13725;51.170;4.442;2022-09-09T14:46:24;5.38;;;1.02;;
25922;SDS011;13725;51.170;4.442;2022-09-09T14:48:51;5.05;;;1.33;;
25922;SDS011;13725;51.170;4.442;2022-09-09T14:51:20;3.75;;;1.10;;
25922;SDS011;13725;51.170;4.442;2022-09-09T14:53:53;2.40;;;1.00;;
25922;SDS011;13725;51.170;4.442;2022-09-09T14:56:21;2.17;;;0.98;;
25922;SDS011;13725;51.170;4.442;2022-09-09T14:58:49;1.48;;;0.93;;
25922;SDS011;13725;51.170;4.442;2022-09-09T15:01:17;4.25;;;1.33;;
25922;SDS011;13725;51.170;4.442;2022-09-09T15:03:50;3.22;;;1.10;;
25922;SDS011;13725;51.170;4.442;2022-09-09T15:06:18;3.92;;;1.60;;
25922;SDS011;13725;51.170;4.442;2022-09-09T15:08:45;1.63;;;0.70;;
25922;SDS011;13725;51.170;4.442;2022-09-09T15:11:12;1.80;;;0.73;;
25922;SDS011;13725;51.170;4.442;2022-09-09T15:13:40;2.17;;;0.77;;
25922;SDS011;13725;51.170;4.442;2022-09-09T15:16:08;1.77;;;0.60;;
25922;SDS011;13725;51.170;4.442;2022-09-09T15:18:36;2.80;;;0.80;;
25922;SDS011;13725;51.170;4.442;2022-09-09T15:21:05;6.00;;;0.73;;
25922;SDS011;13725;51.170;4.442;2022-09-09T15:23:32;5.15;;;0.82;;
25922;SDS011;13725;51.170;4.442;2022-09-09T15:25:58;3.80;;;1.00;;
25922;SDS011;13725;51.170;4.442;2022-09-09T15:28:24;1.40;;;0.80;;
25922;SDS011;13725;51.170;4.442;2022-09-09T15:30:51;2.25;;;0.65;;
25922;SDS011;13725;51.170;4.442;2022-09-09T15:33:18;3.10;;;1.23;;
25922;SDS011;13725;51.170;4.442;2022-09-09T15:35:45;2.83;;;0.85;;
25922;SDS011;13725;51.170;4.442;2022-09-09T15:38:11;4.03;;;1.13;;
25922;SDS011;13725;51.170;4.442;2022-09-09T15:40:40;1.33;;;0.70;;
25922;SDS011;13725;51.170;4.442;2022-09-09T15:43:06;2.63;;;1.00;;
25922;SDS011;13725;51.170;4.442;2022-09-09T15:45:32;3.58;;;0.80;;
25922;SDS011;13725;51.170;4.442;2022-09-09T15:48:02;1.65;;;0.75;;
25922;SDS011;13725;51.170;4.442;2022-09-09T15:50:28;3.38;;;1.13;;
25922;SDS011;13725;51.170;4.442;2022-09-09T15:52:58;2.33;;;0.80;;
25922;SDS011;13725;51.170;4.442;2022-09-09T15:55:24;3.10;;;0.80;;
25922;SDS011;13725;51.170;4.442;2022-09-09T15:57:51;2.08;;;0.70;;
25922;SDS011;13725;51.170;4.442;2022-09-09T16:00:18;0.68;;;0.50;;
25922;SDS011;13725;51.170;4.442;2022-09-09T16:02:46;3.30;;;1.20;;
25922;SDS011;13725;51.170;4.442;2022-09-09T16:05:12;3.13;;;0.80;;
25922;SDS011;13725;51.170;4.442;2022-09-09T16:07:38;1.60;;;0.95;;
25922;SDS011;13725;51.170;4.442;2022-09-09T16:10:04;5.10;;;1.50;;
25922;SDS011;13725;51.170;4.442;2022-09-09T16:12:31;4.85;;;1.13;;
25922;SDS011;13725;51.170;4.442;2022-09-09T16:14:56;4.70;;;1.10;;
25922;SDS011;13725;51.170;4.442;2022-09-09T16:17:22;3.90;;;1.20;;
25922;SDS011;13725;51.170;4.442;2022-09-09T16:19:48;5.82;;;1.33;;
25922;SDS011;13725;51.170;4.442;2022-09-09T16:22:13;2.63;;;1.17;;
25922;SDS011;13725;51.170;4.442;2022-09-09T16:24:40;1.90;;;1.23;;
25922;SDS011;13725;51.170;4.442;2022-09-09T16:27:06;4.10;;;1.30;;
25922;SDS011;13725;51.170;4.442;2022-09-09T16:29:32;3.28;;;1.30;;
25922;SDS011;13725;51.170;4.442;2022-09-09T16:31:57;2.10;;;1.20;;
25922;SDS011;13725;51.170;4.442;2022-09-09T16:34:25;2.08;;;1.20;;
25922;SDS011;13725;51.170;4.442;2022-09-09T16:36:51;3.53;;;1.30;;
25922;SDS011;13725;51.170;4.442;2022-09-09T16:39:17;3.85;;;1.80;;
25922;SDS011;13725;51.170;4.442;2022-09-09T16:41:45;3.67;;;1.30;;
25922;SDS011;13725;51.170;4.442;2022-09-09T16:44:12;2.45;;;1.55;;
25922;SDS011;13725;51.170;4.442;2022-09-09T16:46:41;2.47;;;1.20;;
25922;SDS011;13725;51.170;4.442;2022-09-09T16:49:10;3.17;;;1.55;;
25922;SDS011;13725;51.170;4.442;2022-09-09T16:51:42;3.58;;;1.67;;
25922;SDS011;13725;51.170;4.442;2022-09-09T16:54:10;5.85;;;1.90;;
25922;SDS011;13725;51.170;4.442;2022-09-09T16:56:38;7.07;;;1.90;;
25922;SDS011;13725;51.170;4.442;2022-09-09T16:59:08;6.30;;;2.05;;
25922;SDS011;13725;51.170;4.442;2022-09-09T17:01:39;4.13;;;2.30;;
25922;SDS011;13725;51.170;4.442;2022-09-09T17:04:09;3.67;;;2.17;;
25922;SDS011;13725;51.170;4.442;2022-09-09T17:06:38;6.07;;;2.40;;
25922;SDS011;13725;51.170;4.442;2022-09-09T17:09:06;6.72;;;2.65;;
25922;SDS011;13725;51.170;4.442;2022-09-09T17:11:34;6.43;;;2.80;;
25922;SDS011;13725;51.170;4.442;2022-09-09T17:14:00;3.90;;;2.63;;
25922;SDS011;13725;51.170;4.442;2022-09-09T17:16:27;7.25;;;2.92;;